createdAt,value
2022-07-29T00:01:30.402Z,6.40
2022-07-29T00:06:34.835Z,6.50
2022-07-29T00:11:39.858Z,5.30
2022-07-29T00:16:44.431Z,4.20
2022-07-29T00:21:49.335Z,4.80
2022-07-29T00:26:54.499Z,4.70
2022-07-29T00:31:59.147Z,4.90
2022-07-29T00:37:04.244Z,4.80
2022-07-29T00:42:09.897Z,4.40
2022-07-29T00:47:14.785Z,4.70
2022-07-29T00:52:19.434Z,4.40
2022-07-29T00:57:27.003Z,4.70
2022-07-29T01:02:32.343Z,3.70
2022-07-29T01:07:38.798Z,4.20
2022-07-29T01:12:46.878Z,4.40
2022-07-29T01:18:18.856Z,4.40
2022-07-29T01:23:54.971Z,3.60
2022-07-29T01:29:56.046Z,7.20
2022-07-29T01:35:21.819Z,6.50
2022-07-29T01:40:41.022Z,6.90
2022-07-29T01:45:54.347Z,6.80
2022-07-29T01:51:06.474Z,7.10
2022-07-29T01:56:13.036Z,8.00
2022-07-29T02:01:19.628Z,6.80
2022-07-29T02:06:25.947Z,8.90
2022-07-29T02:11:35.050Z,6.60
2022-07-29T02:16:42.895Z,6.60
2022-07-29T02:21:49.040Z,5.20
2022-07-29T02:26:58.300Z,4.70
2022-07-29T02:37:13.597Z,8.90
2022-07-29T02:42:24.558Z,8.40
2022-07-29T02:47:51.475Z,8.60
2022-07-29T02:53:14.194Z,7.90
2022-07-29T02:58:32.540Z,5.70
2022-07-29T03:03:40.717Z,6.60
2022-07-29T03:08:46.763Z,6.90
2022-07-29T03:13:54.932Z,5.30
2022-07-29T03:19:01.325Z,7.70
2022-07-29T03:24:12.549Z,6.20
2022-07-29T03:29:17.222Z,6.10
2022-07-29T03:34:25.385Z,5.30
2022-07-29T03:39:36.249Z,5.90
2022-07-29T03:44:46.248Z,4.60
2022-07-29T03:49:55.931Z,4.40
2022-07-29T03:55:00.837Z,6.10
2022-07-29T04:00:07.351Z,4.60
2022-07-29T04:05:16.665Z,5.40
2022-07-29T04:10:30.061Z,4.30
2022-07-29T04:15:37.787Z,5.70
2022-07-29T04:20:42.395Z,6.20
2022-07-29T04:25:50.102Z,6.70
2022-07-29T04:30:55.931Z,7.70
2022-07-29T04:36:00.317Z,7.50
2022-07-29T04:41:05.777Z,6.80
2022-07-29T04:46:10.660Z,7.30
2022-07-29T04:51:17.061Z,3.80
2022-07-29T04:56:21.666Z,6.40
2022-07-29T05:01:26.487Z,5.60
2022-07-29T05:06:31.605Z,4.90
2022-07-29T05:11:36.331Z,7.10
2022-07-29T05:16:44.792Z,6.50
2022-07-29T05:21:51.361Z,6.40
2022-07-29T05:26:59.744Z,5.40
2022-07-29T05:32:08.287Z,3.80
2022-07-29T05:37:15.332Z,4.90
2022-07-29T05:42:20.073Z,3.70
2022-07-29T05:47:26.912Z,4.70
2022-07-29T05:52:32.223Z,4.40
2022-07-29T05:57:36.674Z,5.00
2022-07-29T06:02:41.566Z,1.70
2022-07-29T06:07:50.108Z,2.60
2022-07-29T06:12:58.684Z,2.30
2022-07-29T06:18:03.658Z,2.00
2022-07-29T06:23:12.386Z,1.80
2022-07-29T06:28:17.426Z,1.80
2022-07-29T06:33:23.164Z,1.60
2022-07-29T06:38:31.516Z,2.10
2022-07-29T06:43:51.944Z,1.70
2022-07-29T06:48:58.423Z,1.40
2022-07-29T06:54:03.822Z,0.90
2022-07-29T06:59:12.997Z,1.20
2022-07-29T07:04:19.644Z,0.90
2022-07-29T07:09:40.587Z,1.20
2022-07-29T07:14:45.851Z,1.40
2022-07-29T07:19:51.038Z,1.30
2022-07-29T07:24:59.306Z,1.20
2022-07-29T07:30:10.514Z,1.50
2022-07-29T07:35:16.079Z,1.30
2022-07-29T07:40:22.312Z,1.30
2022-07-29T07:45:27.851Z,1.50
2022-07-29T07:50:32.400Z,1.20
2022-07-29T08:01:08.936Z,1.50
2022-07-29T08:06:17.035Z,1.50
2022-07-29T08:11:24.683Z,1.00
2022-07-29T08:16:30.846Z,1.00
2022-07-29T08:21:36.236Z,1.20
2022-07-29T08:26:41.289Z,1.10
2022-07-29T08:31:47.887Z,1.40
2022-07-29T08:36:52.943Z,1.00
2022-07-29T08:41:59.619Z,1.40
2022-07-29T08:47:05.382Z,1.10
2022-07-29T08:52:17.692Z,1.50
2022-07-29T08:57:29.010Z,1.40
2022-07-29T09:02:42.647Z,1.20
2022-07-29T09:07:49.764Z,1.10
2022-07-29T09:12:56.519Z,1.20
2022-07-29T09:18:02.289Z,1.20
2022-07-29T09:23:10.571Z,1.80
2022-07-29T09:28:22.059Z,1.10
2022-07-29T09:33:41.909Z,0.70
2022-07-29T09:39:04.859Z,1.10
2022-07-29T09:44:18.914Z,0.80
2022-07-29T09:49:23.903Z,1.50
2022-07-29T09:54:31.875Z,1.10
2022-07-29T09:59:37.062Z,1.20
2022-07-29T10:04:55.923Z,1.00
2022-07-29T10:10:01.995Z,0.70
2022-07-29T10:15:07.999Z,0.90
2022-07-29T10:20:16.492Z,1.30
2022-07-29T10:25:23.566Z,0.80
2022-07-29T10:30:31.472Z,1.20
2022-07-29T10:35:52.530Z,1.00
2022-07-29T10:41:43.731Z,0.90
2022-07-29T10:46:49.828Z,1.00
2022-07-29T10:52:11.955Z,1.00
2022-07-29T10:57:53.251Z,1.10
2022-07-29T11:02:55.730Z,1.20
2022-07-29T11:08:19.958Z,1.10
2022-07-29T11:13:44.768Z,1.40
2022-07-29T11:19:13.614Z,11.70
2022-07-29T11:24:37.748Z,9.70
2022-07-29T11:30:05.933Z,1.80
2022-07-29T11:35:37.088Z,0.90
2022-07-29T11:40:44.507Z,0.90
2022-07-29T11:45:52.997Z,0.70
2022-07-29T11:50:58.904Z,1.00
2022-07-29T11:56:04.928Z,0.70
2022-07-29T12:01:16.694Z,0.70
2022-07-29T12:06:24.839Z,0.60
2022-07-29T12:11:30.324Z,15.30
2022-07-29T12:16:39.344Z,4.30
2022-07-29T12:21:56.566Z,1.20
2022-07-29T12:27:02.599Z,1.10
2022-07-29T12:32:19.342Z,0.90
2022-07-29T12:37:33.325Z,1.20
2022-07-29T12:43:12.487Z,1.10
2022-07-29T12:48:18.175Z,0.90
2022-07-29T12:53:23.096Z,0.80
2022-07-29T12:58:45.209Z,0.70
2022-07-29T13:03:57.132Z,0.60
2022-07-29T13:09:10.420Z,0.50
2022-07-29T13:14:40.851Z,0.90
2022-07-29T13:19:56.424Z,0.70
2022-07-29T13:25:04.256Z,0.90
2022-07-29T13:30:20.880Z,0.80
2022-07-29T13:35:28.322Z,0.80
2022-07-29T13:40:34.516Z,0.90
2022-07-29T13:45:40.823Z,0.80
2022-07-29T13:50:47.665Z,0.80
2022-07-29T13:55:55.149Z,0.80
2022-07-29T14:06:07.878Z,1.00
2022-07-29T14:11:16.649Z,0.80
2022-07-29T14:16:30.181Z,0.80
2022-07-29T14:21:37.861Z,0.80
2022-07-29T14:26:46.260Z,1.00
2022-07-29T14:31:56.517Z,0.80
2022-07-29T14:37:03.663Z,0.90
2022-07-29T14:42:13.087Z,1.00
2022-07-29T14:47:20.532Z,0.90
2022-07-29T14:52:26.275Z,0.60
2022-07-29T14:57:43.163Z,0.70
2022-07-29T15:03:01.880Z,20.70
2022-07-29T15:08:10.049Z,1.10
2022-07-29T15:13:16.448Z,0.80
2022-07-29T15:18:25.765Z,0.80
2022-07-29T15:23:31.878Z,1.00
2022-07-29T15:28:36.502Z,0.90
2022-07-29T15:33:42.210Z,1.00
2022-07-29T15:38:47.231Z,0.60
2022-07-29T15:43:53.521Z,0.90
2022-07-29T15:48:58.806Z,0.90
2022-07-29T15:54:07.188Z,1.30
2022-07-29T15:59:22.209Z,1.00
2022-07-29T16:04:28.583Z,0.90
2022-07-29T16:09:33.837Z,0.90
2022-07-29T16:14:39.631Z,0.80
2022-07-29T16:19:48.871Z,0.80
2022-07-29T16:24:54.065Z,0.90
2022-07-29T16:30:00.745Z,1.50
2022-07-29T16:35:08.606Z,1.00
2022-07-29T16:45:46.474Z,0.80
2022-07-29T16:50:53.745Z,0.50
2022-07-29T16:55:59.003Z,0.70
2022-07-29T17:01:04.331Z,0.50
2022-07-29T17:06:09.552Z,0.90
2022-07-29T17:11:16.151Z,0.60
2022-07-29T17:16:26.328Z,0.80
2022-07-29T17:21:31.267Z,1.00
2022-07-29T17:26:36.217Z,1.10
2022-07-29T17:31:40.840Z,0.70
2022-07-29T17:36:46.177Z,0.90
2022-07-29T17:41:52.144Z,1.40
2022-07-29T17:46:57.763Z,1.40
2022-07-29T17:52:02.563Z,0.90
2022-07-29T17:57:07.579Z,1.10
2022-07-29T18:02:14.937Z,1.20
2022-07-29T18:07:19.923Z,1.00
2022-07-29T18:12:24.285Z,1.00
2022-07-29T18:17:34.581Z,1.40
2022-07-29T18:22:56.672Z,1.10
2022-07-29T18:28:01.806Z,1.60
2022-07-29T18:33:25.984Z,1.30
2022-07-29T18:38:31.063Z,2.70
2022-07-29T18:43:43.998Z,1.50
2022-07-29T18:48:54.668Z,1.40
2022-07-29T18:54:01.313Z,2.20
2022-07-29T18:59:07.785Z,3.10
2022-07-29T19:04:16.967Z,2.30
2022-07-29T19:09:24.511Z,1.80
2022-07-29T19:14:30.270Z,1.40
2022-07-29T19:19:36.043Z,1.80
2022-07-29T19:24:44.173Z,1.60
2022-07-29T19:29:49.319Z,1.30
2022-07-29T19:35:13.777Z,1.70
2022-07-29T19:40:21.134Z,1.20
2022-07-29T19:45:27.188Z,1.40
2022-07-29T19:50:36.917Z,1.40
2022-07-29T19:55:44.308Z,2.10
2022-07-29T20:00:51.988Z,1.50
2022-07-29T20:05:57.700Z,2.10
2022-07-29T20:11:04.807Z,1.60
2022-07-29T20:16:10.054Z,1.50
2022-07-29T20:21:14.861Z,1.80
2022-07-29T20:26:19.787Z,1.90
2022-07-29T20:31:25.289Z,1.70
2022-07-29T20:36:31.472Z,2.10
2022-07-29T20:41:37.504Z,2.10
2022-07-29T20:46:43.505Z,1.70
2022-07-29T20:51:47.629Z,1.60
2022-07-29T20:56:51.968Z,1.60
2022-07-29T21:01:56.386Z,2.00
2022-07-29T21:07:00.888Z,1.70
2022-07-29T21:12:05.975Z,2.40
2022-07-29T21:17:10.756Z,2.40
2022-07-29T21:22:15.109Z,2.40
2022-07-29T21:27:38.565Z,3.00
2022-07-29T21:32:42.971Z,3.60
2022-07-29T21:37:47.367Z,3.40
2022-07-29T21:42:51.515Z,2.80
2022-07-29T21:47:55.948Z,2.40
2022-07-29T21:53:00.622Z,2.40
2022-07-29T21:58:05.438Z,2.10
2022-07-29T22:03:10.604Z,3.00
2022-07-29T22:08:15.139Z,3.10
2022-07-29T22:13:19.285Z,2.60
2022-07-29T22:18:23.309Z,2.90
2022-07-29T22:23:27.558Z,3.30
2022-07-29T22:28:31.905Z,2.70
2022-07-29T22:33:36.038Z,2.40
2022-07-29T22:38:40.365Z,2.80
2022-07-29T22:43:44.604Z,3.30
2022-07-29T22:48:48.675Z,3.70
2022-07-29T22:53:53.084Z,3.40
2022-07-29T22:58:57.417Z,4.00
2022-07-29T23:04:01.625Z,3.40
2022-07-29T23:09:06.844Z,3.50
2022-07-29T23:14:11.277Z,4.10
2022-07-29T23:19:15.620Z,3.90
2022-07-29T23:24:32.129Z,3.90
2022-07-29T23:29:36.932Z,4.20
2022-07-29T23:34:41.254Z,4.10
2022-07-29T23:39:45.587Z,3.30
2022-07-29T23:44:50.118Z,3.40
2022-07-29T23:49:56.610Z,4.00
2022-07-29T23:55:37.333Z,4.30
